ESSV/VBY METAR and TAF weather

Enter ICAO airport designator
Station Type Date Time Source
ESSV METAR 2020/07/04 02:50 UTC NOAA

ESSV 040250Z AUTO 20014KT 9999 FEW018/// OVC064/// 15/12 Q1008


Station Type Date Time Source
ESSV Decoded METAR 2020/07/04 02:50 UTC NOAA

Visby Flygplats, Sweden (ESSV) 57-40N 018-21E 47M
Jul 03, 2020 - 10:50 PM EDT / 2020.07.04 0250 UTC
Wind: from the SSW (200 degrees) at 16 MPH (14 KT):0
Visibility: greater than 7 mile(s):0
Sky conditions: overcast
Temperature: 59 F (15 C)
Dew Point: 53 F (12 C)
Relative Humidity: 82%
Pressure (altimeter): 29.77 in. Hg (1008 hPa)
ob: ESSV 040250Z AUTO 20014KT 9999 FEW018/// OVC064/// 15/12 Q1008
cycle: 3

Station Type Date Time Source
ESSV TAF 2017/09/20 09:39 UTC NOAA

TAF COR TAF COR ESSV 200840Z 2009/2021 10005KT 9999 BKN030 PROB40 2009/2016 4000 TS SHRA BKN015CB

Example: see airport list